Terminal Aerodrome Forecast
Issued by NWS

Home | Current Version | Previous Version | Text Only | Print | Product List | Glossary On
Versions: 1 2 3 4 5 6 7 8 9 10 11 12 13 14 15 16 17 18 19
208
FTUS41 KBTV 281127
TAFMPV
TAF
KMPV 281127Z 2812/2912 VRB05KT P6SM SCT008 BKN035 OVC080
      TEMPO 2812/2813 OVC030
     FM281300 23006KT P6SM BKN040 BKN080
     FM281500 26008G18KT P6SM SCT080
     FM290200 VRB03KT P6SM SCT140 BKN200
     FM290900 20004KT P6SM SCT060 BKN110=

USA.gov is the U.S. government's official web portal to all federal, state and local government web resources and services.